Time;durP1;ratioP1;P1;durP2;ratioP2;P2;SDS_P1;SDS_P2;PMS_P1;PMS_P2;Temp;Humidity;BMP_temperature;BMP_pressure;BME280_temperature;BME280_humidity;BME280_pressure;Samples;Min_cycle;Max_cycle;Signal;HPM_P1;HPM_P2
2023/08/22 00:00:47;;;;;;;6.10;1.50;;;;;;;-145.81;100.00;67990.72;2060065;28;20035;-78
2023/08/22 00:01:52;;;;;;;4.90;2.42;;;;;;;-145.81;100.00;67990.72;2068412;28;20034;-73
2023/08/22 00:02:54;;;;;;;4.18;1.55;;;;;;;-145.81;100.00;67990.72;2051669;28;20713;-75
2023/08/22 00:04:01;;;;;;;6.82;1.42;;;;;;;-145.81;100.00;67990.72;2044633;28;20035;-75
2023/08/22 00:05:05;;;;;;;4.65;1.60;;;;;;;-145.81;100.00;67990.72;2060326;28;20026;-75
2023/08/22 00:06:08;;;;;;;6.25;1.40;;;;;;;-145.81;100.00;67990.72;2059621;28;20027;-75
2023/08/22 00:07:10;;;;;;;3.85;1.42;;;;;;;-145.81;100.00;67990.72;2059885;28;20077;-75
2023/08/22 00:08:12;;;;;;;6.28;1.85;;;;;;;-145.81;100.00;67990.72;2054795;28;20047;-75
2023/08/22 00:09:17;;;;;;;5.53;1.60;;;;;;;-145.81;100.00;67990.72;2052158;28;20035;-75
2023/08/22 00:10:24;;;;;;;4.57;1.55;;;;;;;-145.81;100.00;67990.72;2051872;28;20115;-76
2023/08/22 00:11:28;;;;;;;4.15;1.20;;;;;;;-145.81;100.00;67990.72;2044363;28;20032;-74
2023/08/22 00:12:31;;;;;;;5.13;1.60;;;;;;;-145.81;100.00;67990.72;2046640;28;20828;-74
2023/08/22 00:13:33;;;;;;;4.03;1.50;;;;;;;-145.81;100.00;67990.72;2044023;28;20108;-74
2023/08/22 00:14:38;;;;;;;3.17;1.25;;;;;;;-145.81;100.00;67990.72;2052263;28;20119;-74
2023/08/22 00:15:46;;;;;;;7.47;1.90;;;;;;;-145.81;100.00;67990.72;2060680;28;20037;-74
2023/08/22 00:16:50;;;;;;;4.32;1.50;;;;;;;-145.81;100.00;67990.72;2059604;28;20035;-74
2023/08/22 00:17:52;;;;;;;7.53;1.58;;;;;;;-145.81;100.00;67990.72;2052676;28;20039;-74
2023/08/22 00:18:57;;;;;;;5.05;1.60;;;;;;;-145.81;100.00;67990.72;2059360;28;20862;-74
2023/08/22 00:20:04;;;;;;;6.22;1.50;;;;;;;-145.81;100.00;67990.72;2059945;28;20039;-74
2023/08/22 00:21:08;;;;;;;4.57;1.25;;;;;;;-145.81;100.00;67990.72;2061219;28;20036;-75
2023/08/22 00:22:12;;;;;;;8.40;1.60;;;;;;;-145.81;100.00;67990.72;2060129;28;20728;-74
2023/08/22 00:23:14;;;;;;;4.38;1.60;;;;;;;-145.81;100.00;67990.72;2059867;28;20023;-74
2023/08/22 00:24:17;;;;;;;5.57;1.38;;;;;;;-145.81;100.00;67990.72;2060479;28;20067;-75
2023/08/22 00:25:21;;;;;;;5.03;1.58;;;;;;;-145.81;100.00;67990.72;2052046;28;20031;-74
2023/08/22 00:26:29;;;;;;;4.47;1.50;;;;;;;-145.81;100.00;67990.72;2046015;28;20127;-75
2023/08/22 00:27:31;;;;;;;5.82;1.38;;;;;;;-145.81;100.00;67990.72;2060802;28;21206;-75
2023/08/22 00:28:37;;;;;;;5.28;1.70;;;;;;;-145.81;100.00;67990.72;2052154;28;20906;-75
2023/08/22 00:29:41;;;;;;;8.30;1.80;;;;;;;-145.81;100.00;67990.72;2029364;29;20904;-76
2023/08/22 00:30:53;;;;;;;4.55;1.20;;;;;;;-145.81;100.00;67990.72;2037459;28;20151;-77
2023/08/22 00:31:57;;;;;;;3.78;1.35;;;;;;;-145.81;100.00;67990.72;2061647;28;20882;-77
2023/08/22 00:33:02;;;;;;;6.00;1.95;;;;;;;-145.81;100.00;67990.72;2043870;29;20047;-77
2023/08/22 00:34:07;;;;;;;5.45;1.52;;;;;;;-145.81;100.00;67990.72;2038051;28;20043;-76
2023/08/22 00:35:12;;;;;;;3.13;1.55;;;;;;;-145.81;100.00;67990.72;2052327;28;20035;-77
2023/08/22 00:36:16;;;;;;;3.70;1.48;;;;;;;-145.81;100.00;67990.72;2052391;28;20835;-76
2023/08/22 00:37:21;;;;;;;5.97;1.50;;;;;;;-145.81;100.00;67990.72;2052311;28;20158;-76
2023/08/22 00:38:26;;;;;;;7.72;1.70;;;;;;;-145.81;100.00;67990.72;2053071;28;20890;-76
2023/08/22 00:39:28;;;;;;;3.72;1.42;;;;;;;-145.81;100.00;67990.72;2052327;28;20040;-75
2023/08/22 00:40:29;;;;;;;3.97;1.30;;;;;;;-145.81;100.00;67990.72;2044088;28;20036;-76
2023/08/22 00:41:32;;;;;;;5.05;1.30;;;;;;;-145.81;100.00;67990.72;2044128;28;20032;-76
2023/08/22 00:42:38;;;;;;;3.40;1.25;;;;;;;-145.81;100.00;67990.72;2044600;28;20024;-76
2023/08/22 00:43:43;;;;;;;6.07;1.50;;;;;;;-145.81;100.00;67990.72;2045177;28;20044;-76
2023/08/22 00:44:44;;;;;;;6.85;1.73;;;;;;;-145.81;100.00;67990.72;2060111;28;20902;-77
2023/08/22 00:45:49;;;;;;;7.30;1.60;;;;;;;-145.81;100.00;67990.72;2059884;28;20202;-77
2023/08/22 00:46:53;;;;;;;4.53;1.40;;;;;;;-145.81;100.00;67990.72;2060190;28;20035;-77
2023/08/22 00:47:57;;;;;;;4.90;1.42;;;;;;;-145.81;100.00;67990.72;2060032;28;20027;-79
2023/08/22 00:48:59;;;;;;;6.45;1.83;;;;;;;-145.81;100.00;67990.72;2051798;28;20068;-79
2023/08/22 00:50:04;;;;;;;6.40;1.42;;;;;;;-145.81;100.00;67990.72;2044231;28;20036;-78
2023/08/22 00:51:12;;;;;;;3.88;1.30;;;;;;;-145.81;100.00;67990.72;2044644;28;20033;-78
2023/08/22 00:52:17;;;;;;;3.67;1.40;;;;;;;-145.81;100.00;67990.72;2038692;28;20155;-79
2023/08/22 00:53:20;;;;;;;8.25;1.55;;;;;;;-145.81;100.00;67990.72;2037005;28;20035;-77
2023/08/22 00:54:23;;;;;;;6.80;2.00;;;;;;;-145.81;100.00;67990.72;2036634;28;20105;-75
2023/08/22 00:55:27;;;;;;;4.22;1.58;;;;;;;-145.81;100.00;67990.72;2052461;28;20820;-79
2023/08/22 00:56:32;;;;;;;6.90;1.40;;;;;;;-145.81;100.00;67990.72;2067885;28;20042;-77
2023/08/22 00:57:36;;;;;;;3.78;1.45;;;;;;;-145.81;100.00;67990.72;2060002;28;20086;-76
2023/08/22 00:58:38;;;;;;;4.45;1.38;;;;;;;-145.81;100.00;67990.72;2060501;28;20039;-77
2023/08/22 00:59:41;;;;;;;4.78;1.40;;;;;;;-145.81;100.00;67990.72;2051745;28;20113;-77
2023/08/22 01:00:44;;;;;;;3.72;1.30;;;;;;;-145.81;100.00;67990.72;2052602;28;20027;-77
2023/08/22 01:01:46;;;;;;;5.05;1.45;;;;;;;-145.81;100.00;67990.72;2052055;28;20028;-77
2023/08/22 01:02:48;;;;;;;2.20;1.10;;;;;;;-145.81;100.00;67990.72;2044031;28;20989;-77
2023/08/22 01:03:50;;;;;;;4.00;1.58;;;;;;;-145.81;100.00;67990.72;2051927;28;20923;-77
2023/08/22 01:04:51;;;;;;;4.63;1.40;;;;;;;-145.81;100.00;67990.72;2043888;28;20040;-75
2023/08/22 01:05:59;;;;;;;3.67;1.30;;;;;;;-145.81;100.00;67990.72;2052126;28;20068;-76
2023/08/22 01:07:34;;;;;;;8.05;1.65;;;;;;;-145.81;100.00;67990.72;2051739;28;20098;-76
2023/08/22 01:08:52;;;;;;;12.18;1.55;;;;;;;-145.81;100.00;67990.72;2038763;29;20048;-75
2023/08/22 01:10:02;;;;;;;3.08;1.35;;;;;;;-145.81;100.00;67990.72;2035305;29;20036;-75
2023/08/22 01:11:16;;;;;;;4.85;1.73;;;;;;;-145.81;100.00;67990.72;2048635;28;20060;-75
2023/08/22 01:12:50;;;;;;;4.43;1.60;;;;;;;-145.81;100.00;67990.72;2067796;28;20042;-76
2023/08/22 01:13:57;;;;;;;4.03;1.20;;;;;;;-145.81;100.00;67990.72;2051819;28;20032;-75
2023/08/22 01:15:14;;;;;;;4.03;1.20;;;;;;;-145.81;100.00;67990.72;2052036;28;20040;-76
2023/08/22 01:16:19;;;;;;;4.70;1.50;;;;;;;-145.81;100.00;67990.72;2053982;28;20159;-76
2023/08/22 01:17:23;;;;;;;7.00;1.70;;;;;;;-145.81;100.00;67990.72;2044191;28;20147;-75
2023/08/22 01:18:27;;;;;;;5.03;1.63;;;;;;;-145.81;100.00;67990.72;2036782;28;20033;-75
2023/08/22 01:19:31;;;;;;;6.35;1.45;;;;;;;-145.81;100.00;67990.72;2037024;28;20147;-75
2023/08/22 01:20:35;;;;;;;4.30;1.20;;;;;;;-145.81;100.00;67990.72;2036360;28;20836;-75
2023/08/22 01:21:47;;;;;;;6.82;1.50;;;;;;;-145.81;100.00;67990.72;2044536;28;20067;-75
2023/08/22 01:22:49;;;;;;;4.43;1.63;;;;;;;-145.81;100.00;67990.72;2054082;28;20146;-75
2023/08/22 01:23:52;;;;;;;5.00;1.30;;;;;;;-145.81;100.00;67990.72;2061474;28;20141;-76
2023/08/22 01:24:54;;;;;;;5.53;1.90;;;;;;;-145.81;100.00;67990.72;2061030;28;20074;-77
2023/08/22 01:25:58;;;;;;;5.57;1.50;;;;;;;-145.81;100.00;67990.72;2045646;28;20040;-77
2023/08/22 01:26:59;;;;;;;6.47;2.05;;;;;;;-145.81;100.00;67990.72;2053794;28;20031;-77
2023/08/22 01:28:05;;;;;;;3.15;1.23;;;;;;;-145.81;100.00;67990.72;2053668;28;20031;-76
2023/08/22 01:29:14;;;;;;;8.10;1.50;;;;;;;-145.81;100.00;67990.72;2053800;28;20027;-76
2023/08/22 01:30:35;;;;;;;3.97;1.50;;;;;;;-145.81;100.00;67990.72;2061486;28;20031;-78
2023/08/22 01:31:56;;;;;;;5.22;1.30;;;;;;;-145.81;100.00;67990.72;2069139;28;20145;-78
2023/08/22 01:33:05;;;;;;;4.50;1.40;;;;;;;-145.81;100.00;67990.72;2052639;28;20082;-77
2023/08/22 01:34:16;;;;;;;6.20;1.98;;;;;;;-145.81;100.00;67990.72;2062822;28;20825;-78
2023/08/22 01:35:26;;;;;;;5.95;1.67;;;;;;;-145.81;100.00;67990.72;2069057;28;20073;-78
2023/08/22 01:36:30;;;;;;;6.65;1.42;;;;;;;-145.81;100.00;67990.72;2068061;28;20142;-79
2023/08/22 01:37:33;;;;;;;4.20;2.08;;;;;;;-145.81;100.00;67990.72;2069138;28;20098;-79
2023/08/22 01:38:42;;;;;;;5.40;1.70;;;;;;;-145.81;100.00;67990.72;2069558;28;20034;-79
2023/08/22 01:39:55;;;;;;;6.53;1.65;;;;;;;-145.81;100.00;67990.72;2061216;28;20035;-78
2023/08/22 01:40:57;;;;;;;6.13;1.60;;;;;;;-145.81;100.00;67990.72;2062652;28;20065;-78
2023/08/22 01:42:05;;;;;;;5.10;1.58;;;;;;;-145.81;100.00;67990.72;2069307;28;20827;-77
2023/08/22 01:43:11;;;;;;;6.78;1.48;;;;;;;-145.81;100.00;67990.72;2069417;28;20026;-77
2023/08/22 01:44:12;;;;;;;5.70;1.63;;;;;;;-145.81;100.00;67990.72;2061025;28;20940;-78
2023/08/22 01:45:16;;;;;;;4.75;1.77;;;;;;;-145.81;100.00;67990.72;2061141;28;20163;-78
2023/08/22 01:46:21;;;;;;;3.88;1.52;;;;;;;-145.81;100.00;67990.72;2061323;28;20141;-78
2023/08/22 01:47:23;;;;;;;6.65;2.50;;;;;;;-145.81;100.00;67990.72;2061013;28;20884;-78
2023/08/22 01:48:25;;;;;;;3.78;1.83;;;;;;;-145.81;100.00;67990.72;2053297;28;20832;-79
2023/08/22 01:49:30;;;;;;;7.22;1.90;;;;;;;-145.81;100.00;67990.72;2053599;28;20016;-75
2023/08/22 01:50:32;;;;;;;4.78;1.60;;;;;;;-145.81;100.00;67990.72;2052963;28;20135;-75
2023/08/22 01:51:33;;;;;;;7.00;1.80;;;;;;;-145.81;100.00;67990.72;2053309;28;20882;-74
2023/08/22 01:52:38;;;;;;;4.18;1.63;;;;;;;-145.81;100.00;67990.72;2052774;28;20828;-74
2023/08/22 01:53:40;;;;;;;7.45;1.80;;;;;;;-145.81;100.00;67990.72;2054093;28;20126;-75
2023/08/22 01:54:41;;;;;;;5.07;1.70;;;;;;;-145.81;100.00;67990.72;2052771;28;20090;-75
2023/08/22 01:55:43;;;;;;;5.70;1.90;;;;;;;-145.81;100.00;67990.72;2061349;28;20126;-77
2023/08/22 01:56:46;;;;;;;6.65;1.90;;;;;;;-145.81;100.00;67990.72;2053104;28;20079;-77
2023/08/22 01:57:48;;;;;;;5.97;2.05;;;;;;;-145.81;100.00;67990.72;2045324;28;20135;-77
2023/08/22 01:58:51;;;;;;;4.38;1.60;;;;;;;-145.81;100.00;67990.72;2045510;28;20063;-77
2023/08/22 01:59:58;;;;;;;7.75;2.38;;;;;;;-145.81;100.00;67990.72;2061596;28;20031;-77
2023/08/22 02:01:08;;;;;;;2.47;1.42;;;;;;;-145.81;100.00;67990.72;2060807;28;20031;-78
2023/08/22 02:02:14;;;;;;;3.55;1.50;;;;;;;-145.81;100.00;67990.72;2061071;28;20042;-78
2023/08/22 02:03:17;;;;;;;6.38;2.13;;;;;;;-145.81;100.00;67990.72;2052584;28;20050;-78
2023/08/22 02:04:21;;;;;;;6.07;2.13;;;;;;;-145.81;100.00;67990.72;2053873;28;20023;-78
2023/08/22 02:05:24;;;;;;;4.60;1.98;;;;;;;-145.81;100.00;67990.72;2052992;28;20058;-77
2023/08/22 02:06:30;;;;;;;3.55;1.70;;;;;;;-145.81;100.00;67990.72;2054400;28;20034;-78
2023/08/22 02:07:35;;;;;;;6.20;1.60;;;;;;;-145.81;100.00;67990.72;2068884;28;20034;-78
2023/08/22 02:08:38;;;;;;;5.18;1.67;;;;;;;-145.81;100.00;67990.72;2036917;29;20851;-78
2023/08/22 02:09:40;;;;;;;5.63;1.98;;;;;;;-145.81;100.00;67990.72;2030463;28;20037;-78
2023/08/22 02:10:44;;;;;;;4.10;1.60;;;;;;;-145.81;100.00;67990.72;2052940;28;20040;-78
2023/08/22 02:11:49;;;;;;;3.85;1.63;;;;;;;-145.81;100.00;67990.72;2053162;28;20063;-78
2023/08/22 02:12:52;;;;;;;4.72;1.58;;;;;;;-145.81;100.00;67990.72;2045588;28;21337;-78
2023/08/22 02:13:55;;;;;;;9.70;1.80;;;;;;;-145.81;100.00;67990.72;2037416;29;20068;-78
2023/08/22 02:14:59;;;;;;;5.00;2.10;;;;;;;-145.81;100.00;67990.72;2036992;29;21431;-78
2023/08/22 02:16:03;;;;;;;5.53;2.10;;;;;;;-145.81;100.00;67990.72;2046128;28;20064;-76
2023/08/22 02:17:05;;;;;;;7.97;2.17;;;;;;;-145.81;100.00;67990.72;2052775;28;20020;-76
2023/08/22 02:18:07;;;;;;;5.32;1.90;;;;;;;-145.81;100.00;67990.72;2061225;28;20039;-76
2023/08/22 02:19:16;;;;;;;3.53;1.90;;;;;;;-145.81;100.00;67990.72;2052763;28;20077;-76
2023/08/22 02:20:19;;;;;;;3.70;1.52;;;;;;;-145.81;100.00;67990.72;2045369;28;20054;-76
2023/08/22 02:21:25;;;;;;;5.05;1.98;;;;;;;-145.81;100.00;67990.72;2045372;28;20020;-76
2023/08/22 02:22:28;;;;;;;6.28;2.10;;;;;;;-145.81;100.00;67990.72;2045536;28;20036;-76
2023/08/22 02:23:32;;;;;;;4.82;1.98;;;;;;;-145.81;100.00;67990.72;2057649;28;20874;-76
2023/08/22 02:24:36;;;;;;;8.45;1.95;;;;;;;-145.81;100.00;67990.72;2052733;28;20051;-76
2023/08/22 02:25:38;;;;;;;3.97;2.35;;;;;;;-145.81;100.00;67990.72;2029773;29;20041;-77
2023/08/22 02:26:45;;;;;;;3.72;1.95;;;;;;;-145.81;100.00;67990.72;2046816;28;20035;-77
2023/08/22 02:27:50;;;;;;;4.03;1.63;;;;;;;-145.81;100.00;67990.72;2052668;28;20030;-76
2023/08/22 02:28:53;;;;;;;7.07;1.67;;;;;;;-145.81;100.00;67990.72;2053384;28;20023;-76
2023/08/22 02:29:54;;;;;;;5.88;1.85;;;;;;;-145.81;100.00;67990.72;2069123;28;20094;-77
2023/08/22 02:30:56;;;;;;;5.65;1.60;;;;;;;-145.81;100.00;67990.72;2069217;28;20042;-76
2023/08/22 02:32:03;;;;;;;4.95;1.98;;;;;;;-145.81;100.00;67990.72;2052758;28;20043;-79
2023/08/22 02:33:05;;;;;;;4.93;1.55;;;;;;;-145.81;100.00;67990.72;2054041;28;20951;-79
2023/08/22 02:34:09;;;;;;;3.92;2.00;;;;;;;-145.81;100.00;67990.72;2052467;28;20039;-79
2023/08/22 02:35:12;;;;;;;5.47;1.70;;;;;;;-145.81;100.00;67990.72;2061049;28;20031;-79
2023/08/22 02:36:14;;;;;;;3.40;2.05;;;;;;;-145.81;100.00;67990.72;2060824;28;20858;-79
2023/08/22 02:37:16;;;;;;;4.90;1.75;;;;;;;-145.81;100.00;67990.72;2052797;28;20040;-79
2023/08/22 02:38:20;;;;;;;6.80;2.03;;;;;;;-145.81;100.00;67990.72;2061033;28;20141;-79
2023/08/22 02:39:24;;;;;;;3.80;1.75;;;;;;;-145.81;100.00;67990.72;2068503;28;20019;-79
2023/08/22 02:40:29;;;;;;;5.10;1.55;;;;;;;-145.81;100.00;67990.72;2052543;28;20819;-79
2023/08/22 02:41:31;;;;;;;6.40;2.00;;;;;;;-145.81;100.00;67990.72;2037203;28;20040;-79
2023/08/22 02:42:33;;;;;;;4.40;1.60;;;;;;;-145.81;100.00;67990.72;2045136;28;20134;-79
2023/08/22 02:43:39;;;;;;;4.57;1.73;;;;;;;-145.81;100.00;67990.72;2036914;29;20072;-79
2023/08/22 02:44:41;;;;;;;5.10;1.80;;;;;;;-145.81;100.00;67990.72;2054178;28;20031;-80
2023/08/22 02:45:47;;;;;;;8.05;2.20;;;;;;;-145.81;100.00;67990.72;2060442;28;20027;-80
2023/08/22 02:46:49;;;;;;;4.38;1.80;;;;;;;-145.81;100.00;67990.72;2061452;28;20024;-79
2023/08/22 02:47:53;;;;;;;4.25;1.90;;;;;;;-145.81;100.00;67990.72;2060286;28;20132;-79
2023/08/22 02:48:55;;;;;;;5.80;1.98;;;;;;;-145.81;100.00;67990.72;2045153;28;20072;-79
2023/08/22 02:49:58;;;;;;;5.88;2.00;;;;;;;-145.81;100.00;67990.72;2053261;28;20044;-79
2023/08/22 02:51:04;;;;;;;5.43;2.00;;;;;;;-145.81;100.00;67990.72;2052774;28;20035;-79
2023/08/22 02:52:07;;;;;;;5.93;1.90;;;;;;;-145.81;100.00;67990.72;2057946;28;20038;-79
2023/08/22 02:53:14;;;;;;;5.30;1.98;;;;;;;-145.81;100.00;67990.72;2060690;28;20797;-79
2023/08/22 02:54:16;;;;;;;4.97;2.00;;;;;;;-145.81;100.00;67990.72;2053284;28;20066;-79
2023/08/22 02:55:18;;;;;;;6.05;2.45;;;;;;;-145.81;100.00;67990.72;2060532;28;20774;-79
2023/08/22 02:56:22;;;;;;;4.57;1.83;;;;;;;-145.81;100.00;67990.72;2068844;28;20018;-79
2023/08/22 02:57:24;;;;;;;2.72;2.00;;;;;;;-145.81;100.00;67990.72;2052986;28;20028;-78
2023/08/22 02:58:28;;;;;;;5.50;1.85;;;;;;;-145.81;100.00;67990.72;2053353;28;20035;-78
2023/08/22 02:59:30;;;;;;;5.35;1.73;;;;;;;-145.81;100.00;67990.72;2052933;28;20032;-78
2023/08/22 03:00:34;;;;;;;6.50;2.00;;;;;;;-145.81;100.00;67990.72;2053137;28;20027;-78
2023/08/22 03:01:36;;;;;;;4.82;1.90;;;;;;;-145.81;100.00;67990.72;2053005;28;20138;-78
2023/08/22 03:02:38;;;;;;;4.50;2.20;;;;;;;-145.81;100.00;67990.72;2052834;28;20027;-78
2023/08/22 03:03:50;;;;;;;6.68;2.15;;;;;;;-145.81;100.00;67990.72;2061220;28;20032;-78
2023/08/22 03:04:53;;;;;;;8.15;2.60;;;;;;;-145.81;100.00;67990.72;2061078;28;20030;-78
2023/08/22 03:05:57;;;;;;;3.45;1.88;;;;;;;-145.81;100.00;67990.72;2068719;28;20031;-78
2023/08/22 03:07:02;;;;;;;5.07;1.98;;;;;;;-145.81;100.00;67990.72;2059858;28;20031;-78
2023/08/22 03:08:08;;;;;;;5.57;1.83;;;;;;;-145.81;100.00;67990.72;2038031;28;20784;-78
2023/08/22 03:09:15;;;;;;;4.63;1.70;;;;;;;-145.81;100.00;67990.72;2053136;28;20039;-78
2023/08/22 03:10:20;;;;;;;4.35;2.15;;;;;;;-145.81;100.00;67990.72;2061634;28;20031;-80
2023/08/22 03:11:24;;;;;;;5.07;2.10;;;;;;;-145.81;100.00;67990.72;2059790;28;20851;-79
2023/08/22 03:12:29;;;;;;;5.80;2.10;;;;;;;-145.81;100.00;67990.72;2045284;28;20131;-79
2023/08/22 03:13:33;;;;;;;5.55;1.98;;;;;;;-145.81;100.00;67990.72;2045325;28;20047;-79
2023/08/22 03:14:38;;;;;;;5.22;2.17;;;;;;;-145.81;100.00;67990.72;2045452;28;20131;-79
2023/08/22 03:15:40;;;;;;;4.25;1.92;;;;;;;-145.81;100.00;67990.72;2053325;28;20870;-79
2023/08/22 03:16:46;;;;;;;5.32;2.58;;;;;;;-145.81;100.00;67990.72;2052509;28;20034;-79
2023/08/22 03:17:49;;;;;;;7.13;2.90;;;;;;;-145.81;100.00;67990.72;2060655;28;20023;-79
2023/08/22 03:18:52;;;;;;;3.65;2.00;;;;;;;-145.81;100.00;67990.72;2068416;28;20026;-79
2023/08/22 03:19:59;;;;;;;5.75;1.83;;;;;;;-145.81;100.00;67990.72;2060845;28;20933;-79
2023/08/22 03:21:03;;;;;;;7.38;2.92;;;;;;;-145.81;100.00;67990.72;2060439;28;20023;-79
2023/08/22 03:22:10;;;;;;;7.85;2.17;;;;;;;-145.81;100.00;67990.72;2060774;28;20019;-79
2023/08/22 03:23:15;;;;;;;5.20;2.30;;;;;;;-145.81;100.00;67990.72;2052627;28;20739;-79
2023/08/22 03:24:17;;;;;;;3.33;2.40;;;;;;;-145.81;100.00;67990.72;2061157;28;20854;-79
2023/08/22 03:25:19;;;;;;;6.82;2.28;;;;;;;-145.81;100.00;67990.72;2052500;28;21028;-79
2023/08/22 03:26:21;;;;;;;3.92;1.77;;;;;;;-145.81;100.00;67990.72;2044994;28;20044;-79
2023/08/22 03:27:26;;;;;;;6.80;2.17;;;;;;;-145.81;100.00;67990.72;2052873;28;20032;-78
2023/08/22 03:28:29;;;;;;;4.82;2.13;;;;;;;-145.81;100.00;67990.72;2045033;28;20040;-77
2023/08/22 03:29:34;;;;;;;4.85;2.17;;;;;;;-145.81;100.00;67990.72;2053468;28;20039;-78
2023/08/22 03:30:36;;;;;;;5.45;2.25;;;;;;;-145.81;100.00;67990.72;2060472;28;20194;-77
2023/08/22 03:31:38;;;;;;;5.20;2.10;;;;;;;-145.81;100.00;67990.72;2036738;29;20038;-78
2023/08/22 03:32:40;;;;;;;5.10;2.50;;;;;;;-145.81;100.00;67990.72;2036608;28;20056;-77
2023/08/22 03:33:44;;;;;;;5.20;2.13;;;;;;;-145.81;100.00;67990.72;2037088;28;20970;-77
2023/08/22 03:34:49;;;;;;;6.43;2.40;;;;;;;-145.81;100.00;67990.72;2038235;28;20840;-77
2023/08/22 03:35:52;;;;;;;6.80;2.40;;;;;;;-145.81;100.00;67990.72;2060219;28;20090;-78
2023/08/22 03:36:56;;;;;;;5.32;2.13;;;;;;;-145.81;100.00;67990.72;2059968;28;20024;-78
2023/08/22 03:38:00;;;;;;;6.82;2.38;;;;;;;-145.81;100.00;67990.72;2060069;28;20027;-78
2023/08/22 03:39:03;;;;;;;3.97;2.00;;;;;;;-145.81;100.00;67990.72;2060337;28;20038;-78
2023/08/22 03:40:06;;;;;;;5.60;2.20;;;;;;;-145.81;100.00;67990.72;2053097;28;20039;-79
2023/08/22 03:41:09;;;;;;;4.00;2.20;;;;;;;-145.81;100.00;67990.72;2044723;28;20039;-79
2023/08/22 03:42:15;;;;;;;7.60;2.10;;;;;;;-145.81;100.00;67990.72;2045504;28;20784;-78
2023/08/22 03:43:20;;;;;;;4.72;2.28;;;;;;;-145.81;100.00;67990.72;2053145;28;20040;-78
2023/08/22 03:44:28;;;;;;;4.93;2.30;;;;;;;-145.81;100.00;67990.72;2061582;28;20031;-78
2023/08/22 03:45:30;;;;;;;5.50;2.17;;;;;;;-145.81;100.00;67990.72;2051516;28;20160;-78
2023/08/22 03:46:32;;;;;;;2.70;2.03;;;;;;;-145.81;100.00;67990.72;2044290;28;20032;-79
2023/08/22 03:47:37;;;;;;;5.32;2.35;;;;;;;-145.81;100.00;67990.72;2053110;28;20839;-78
2023/08/22 03:48:44;;;;;;;7.20;2.22;;;;;;;-145.81;100.00;67990.72;2052880;28;20036;-79
2023/08/22 03:49:49;;;;;;;5.63;2.33;;;;;;;-145.81;100.00;67990.72;2053389;28;20043;-79
2023/08/22 03:50:51;;;;;;;3.53;2.13;;;;;;;-145.81;100.00;67990.72;2068439;28;20862;-79
2023/08/22 03:51:54;;;;;;;6.20;2.08;;;;;;;-145.81;100.00;67990.72;2060478;28;20043;-80
2023/08/22 03:52:56;;;;;;;4.28;2.10;;;;;;;-145.81;100.00;67990.72;2052639;28;20143;-80
2023/08/22 03:53:59;;;;;;;6.85;2.75;;;;;;;-145.81;100.00;67990.72;2060479;28;20027;-79
2023/08/22 03:55:01;;;;;;;3.75;1.95;;;;;;;-145.81;100.00;67990.72;2060155;28;20027;-80
2023/08/22 03:56:05;;;;;;;6.00;2.50;;;;;;;-145.81;100.00;67990.72;2045021;28;20068;-80
2023/08/22 03:57:12;;;;;;;4.00;2.28;;;;;;;-145.81;100.00;67990.72;2056405;28;20032;-80
2023/08/22 03:58:17;;;;;;;4.75;2.40;;;;;;;-145.81;100.00;67990.72;2052283;28;20059;-79
2023/08/22 03:59:20;;;;;;;6.03;2.33;;;;;;;-145.81;100.00;67990.72;2038138;28;20155;-78
2023/08/22 04:00:24;;;;;;;4.32;2.35;;;;;;;-145.81;100.00;67990.72;2036478;28;20041;-78
2023/08/22 04:01:26;;;;;;;3.17;2.17;;;;;;;-145.81;100.00;67990.72;2058252;28;20138;-77
2023/08/22 04:02:32;;;;;;;6.28;2.55;;;;;;;-145.81;100.00;67990.72;2052520;28;20024;-78
2023/08/22 04:03:37;;;;;;;5.97;2.33;;;;;;;-145.81;100.00;67990.72;2051049;28;20042;-78
2023/08/22 04:04:42;;;;;;;5.53;2.60;;;;;;;-145.81;100.00;67990.72;2060229;28;20031;-79
2023/08/22 04:05:47;;;;;;;4.40;2.72;;;;;;;-145.81;100.00;67990.72;2044161;29;20028;-78
2023/08/22 04:06:49;;;;;;;4.43;2.33;;;;;;;-145.81;100.00;67990.72;2045512;28;20116;-78
2023/08/22 04:07:52;;;;;;;5.53;2.35;;;;;;;-145.81;100.00;67990.72;2044053;28;20048;-78
2023/08/22 04:08:56;;;;;;;5.40;2.50;;;;;;;-145.81;100.00;67990.72;2037879;28;20131;-78
2023/08/22 04:09:58;;;;;;;4.43;2.40;;;;;;;-145.81;100.00;67990.72;2036947;29;20085;-78
2023/08/22 04:11:00;;;;;;;4.93;2.40;;;;;;;-145.81;100.00;67990.72;2036771;28;20875;-80
2023/08/22 04:12:07;;;;;;;4.68;2.20;;;;;;;-145.81;100.00;67990.72;2052629;28;20835;-81
2023/08/22 04:13:11;;;;;;;4.20;2.47;;;;;;;-145.81;100.00;67990.72;2052343;28;20028;-82
2023/08/22 04:14:12;;;;;;;4.35;2.40;;;;;;;-145.81;100.00;67990.72;2060264;28;20045;-80
2023/08/22 04:15:15;;;;;;;3.28;2.10;;;;;;;-145.81;100.00;67990.72;2051979;28;20085;-79
2023/08/22 04:16:17;;;;;;;6.00;2.25;;;;;;;-145.81;100.00;67990.72;2036660;28;20028;-79
2023/08/22 04:17:20;;;;;;;5.15;2.50;;;;;;;-145.81;100.00;67990.72;2036374;29;20075;-77
2023/08/22 04:18:22;;;;;;;3.88;2.10;;;;;;;-145.81;100.00;67990.72;2052106;28;20038;-79
2023/08/22 04:19:30;;;;;;;5.57;2.40;;;;;;;-145.81;100.00;67990.72;2051200;28;20087;-76
2023/08/22 04:20:32;;;;;;;5.55;2.55;;;;;;;-145.81;100.00;67990.72;2045224;28;20029;-79
2023/08/22 04:21:33;;;;;;;6.55;2.58;;;;;;;-145.81;100.00;67990.72;2060085;28;20027;-79
2023/08/22 04:22:35;;;;;;;5.38;2.40;;;;;;;-145.81;100.00;67990.72;2060285;28;20019;-79
2023/08/22 04:23:39;;;;;;;5.40;2.85;;;;;;;-145.81;100.00;67990.72;2065499;28;20085;-79
2023/08/22 04:24:41;;;;;;;6.32;2.90;;;;;;;-145.81;100.00;67990.72;2060721;28;20041;-79
2023/08/22 04:25:47;;;;;;;4.60;2.58;;;;;;;-145.81;100.00;67990.72;2068200;28;20054;-79
2023/08/22 04:26:51;;;;;;;6.35;2.63;;;;;;;-145.81;100.00;67990.72;2068239;28;20081;-75
2023/08/22 04:27:54;;;;;;;5.70;2.70;;;;;;;-145.81;100.00;67990.72;2060421;28;20043;-83
2023/08/22 04:28:56;;;;;;;4.15;2.28;;;;;;;-145.81;100.00;67990.72;2052234;28;20909;-78
2023/08/22 04:30:01;;;;;;;5.38;2.28;;;;;;;-145.81;100.00;67990.72;2060183;28;20847;-79
2023/08/22 04:31:08;;;;;;;4.95;2.10;;;;;;;-145.81;100.00;67990.72;2067914;28;20101;-78
2023/08/22 04:32:13;;;;;;;6.45;2.88;;;;;;;-145.81;100.00;67990.72;2059899;28;20024;-79
2023/08/22 04:33:17;;;;;;;8.75;2.38;;;;;;;-145.81;100.00;67990.72;2044264;28;20048;-79
2023/08/22 04:34:22;;;;;;;7.55;2.47;;;;;;;-145.81;100.00;67990.72;2035854;28;20067;-79
2023/08/22 04:35:32;;;;;;;7.82;2.80;;;;;;;-145.81;100.00;67990.72;2047421;28;20143;-79
2023/08/22 04:36:37;;;;;;;6.18;2.55;;;;;;;-145.81;100.00;67990.72;2068452;28;20073;-79
2023/08/22 04:37:38;;;;;;;6.72;2.45;;;;;;;-145.81;100.00;67990.72;2067889;28;20037;-79
2023/08/22 04:38:42;;;;;;;7.15;2.88;;;;;;;-145.81;100.00;67990.72;2052298;28;20771;-79
2023/08/22 04:39:44;;;;;;;6.40;2.83;;;;;;;-145.81;100.00;67990.72;2060140;28;20736;-79
2023/08/22 04:41:05;;;;;;;5.22;2.28;;;;;;;-145.81;100.00;67990.72;2054244;28;20928;-78
2023/08/22 04:42:26;;;;;;;6.10;2.20;;;;;;;-145.81;100.00;67990.72;2064814;28;20086;-77
2023/08/22 04:43:35;;;;;;;5.65;2.30;;;;;;;-145.81;100.00;67990.72;2068283;28;20047;-78
2023/08/22 04:44:36;;;;;;;6.05;2.20;;;;;;;-145.81;100.00;67990.72;2052039;28;20822;-83
2023/08/22 04:45:40;;;;;;;6.68;2.78;;;;;;;-145.81;100.00;67990.72;2052691;28;20079;-80
2023/08/22 04:46:44;;;;;;;5.15;2.80;;;;;;;-145.81;100.00;67990.72;2044501;28;20044;-76
2023/08/22 04:47:46;;;;;;;6.57;2.80;;;;;;;-145.81;100.00;67990.72;2036571;28;20045;-76
2023/08/22 04:48:53;;;;;;;5.00;2.40;;;;;;;-145.81;100.00;67990.72;2060545;28;20606;-79
2023/08/22 04:49:55;;;;;;;8.68;2.45;;;;;;;-145.81;100.00;67990.72;2052118;28;20071;-79
2023/08/22 04:51:02;;;;;;;5.15;2.55;;;;;;;-145.81;100.00;67990.72;2046179;28;20868;-77
2023/08/22 04:52:05;;;;;;;5.25;2.20;;;;;;;-145.81;100.00;67990.72;2068558;28;20806;-83
2023/08/22 04:53:07;;;;;;;6.07;2.40;;;;;;;-145.81;100.00;67990.72;2060002;28;20035;-80
2023/08/22 04:54:15;;;;;;;5.57;2.10;;;;;;;-145.81;100.00;67990.72;2044113;28;20048;-78